METAR AND TAF INFORMATION
METAR FOR KMVY
KMVY 260253Z AUTO 21008KT 10SM CLR M02/M06 A3012 RMK AO2 SLP201 T10171061 56004
KMVY 260153Z AUTO 20008KT 10SM CLR M03/M08 A3012 RMK AO2 SLP202 T10281078
KMVY 260053Z AUTO 21005KT 10SM CLR M03/M08 A3013 RMK AO2 SLP203 T10281083

 AIRPORT MAP

 RUNWAY INFORMATION
Runway 01 Runway length 3177 ft Runway width 75 ft
Runway elevation 55 ft Runway displaced threshold 0 ft Runway heading 356
Runway 19 Runway length 3177 ft Runway width 75 ft
Runway elevation 65 ft Runway displaced threshold 0 ft Runway heading 176
Runway 06 Runway length 5504 ft Runway width 100 ft
Runway elevation 56 ft Runway displaced threshold 0 ft Runway heading 41
Runway 24 Runway length 5504 ft Runway width 100 ft
Runway elevation 62 ft Runway displaced threshold 0 ft Runway heading 221
Runway 15 Runway length 3297 ft Runway width 75 ft
Runway elevation 67 ft Runway displaced threshold 0 ft Runway heading 131
Runway 33 Runway length 3297 ft Runway width 75 ft
Runway elevation 56 ft Runway displaced threshold 0 ft Runway heading 311

 AIRPORT FREQUENCIES
Type A/D Name CAPE APP/D Frequency 133.75 MHZ
Type ATIS Name ATIS Frequency 126.25 MHZ
Type CLD Name CLNC DEL Frequency 134.65 MHZ
Type CTAF Name CTAF Frequency 121.4 MHZ
Type GND Name GND Frequency 121.8 MHZ
Type RDO Name BRIDGEPORT Frequency 114.5 MHZ
Type TWR Name VINEYARD T Frequency 121.4 MHZ
Type UNIC Name UNICOM Frequency 122.95 MHZ

 AIRPORT NEAR NAVIGATION AIDS

-